sensor_id;sensor_type;location;lat;lon;timestamp;P1;durP1;ratioP1;P2;durP2;ratioP2
3891;SDS011;1961;48.194;16.370;2023-07-20T00:01:06;44.23;;;7.17;;
3891;SDS011;1961;48.194;16.370;2023-07-20T00:03:32;43.80;;;7.17;;
3891;SDS011;1961;48.194;16.370;2023-07-20T00:05:58;44.70;;;7.90;;
3891;SDS011;1961;48.194;16.370;2023-07-20T00:08:24;43.60;;;7.33;;
3891;SDS011;1961;48.194;16.370;2023-07-20T00:10:50;45.27;;;7.63;;
3891;SDS011;1961;48.194;16.370;2023-07-20T00:13:17;45.17;;;7.67;;
3891;SDS011;1961;48.194;16.370;2023-07-20T00:15:44;46.70;;;7.60;;
3891;SDS011;1961;48.194;16.370;2023-07-20T00:18:10;46.57;;;7.47;;
3891;SDS011;1961;48.194;16.370;2023-07-20T00:20:36;45.37;;;7.87;;
3891;SDS011;1961;48.194;16.370;2023-07-20T00:23:03;44.80;;;7.40;;
3891;SDS011;1961;48.194;16.370;2023-07-20T00:25:29;45.57;;;7.83;;
3891;SDS011;1961;48.194;16.370;2023-07-20T00:27:55;43.97;;;8.23;;
3891;SDS011;1961;48.194;16.370;2023-07-20T00:30:21;44.10;;;7.63;;
3891;SDS011;1961;48.194;16.370;2023-07-20T00:32:47;43.90;;;7.07;;
3891;SDS011;1961;48.194;16.370;2023-07-20T00:35:13;45.30;;;7.47;;
3891;SDS011;1961;48.194;16.370;2023-07-20T00:37:39;45.93;;;7.70;;
3891;SDS011;1961;48.194;16.370;2023-07-20T00:40:06;45.20;;;7.83;;
3891;SDS011;1961;48.194;16.370;2023-07-20T00:42:32;45.77;;;8.00;;
3891;SDS011;1961;48.194;16.370;2023-07-20T00:44:59;45.07;;;7.60;;
3891;SDS011;1961;48.194;16.370;2023-07-20T00:47:25;44.57;;;7.50;;
3891;SDS011;1961;48.194;16.370;2023-07-20T00:49:52;45.00;;;7.70;;
3891;SDS011;1961;48.194;16.370;2023-07-20T00:52:19;43.40;;;7.33;;
3891;SDS011;1961;48.194;16.370;2023-07-20T00:54:46;47.30;;;7.30;;
3891;SDS011;1961;48.194;16.370;2023-07-20T00:57:16;44.67;;;7.33;;
3891;SDS011;1961;48.194;16.370;2023-07-20T00:59:43;49.40;;;7.57;;
3891;SDS011;1961;48.194;16.370;2023-07-20T01:02:10;45.00;;;7.53;;
3891;SDS011;1961;48.194;16.370;2023-07-20T01:04:36;45.17;;;7.90;;
3891;SDS011;1961;48.194;16.370;2023-07-20T01:07:08;43.97;;;8.13;;
3891;SDS011;1961;48.194;16.370;2023-07-20T01:09:40;45.77;;;7.97;;
3891;SDS011;1961;48.194;16.370;2023-07-20T01:12:09;47.97;;;8.20;;
3891;SDS011;1961;48.194;16.370;2023-07-20T01:14:38;44.93;;;8.17;;
3891;SDS011;1961;48.194;16.370;2023-07-20T01:17:05;47.63;;;7.30;;
3891;SDS011;1961;48.194;16.370;2023-07-20T01:19:31;44.40;;;8.00;;
3891;SDS011;1961;48.194;16.370;2023-07-20T01:27:01;46.30;;;7.67;;
3891;SDS011;1961;48.194;16.370;2023-07-20T01:32:20;43.77;;;7.83;;
3891;SDS011;1961;48.194;16.370;2023-07-20T01:34:48;44.50;;;7.10;;
3891;SDS011;1961;48.194;16.370;2023-07-20T01:37:15;44.70;;;7.30;;
3891;SDS011;1961;48.194;16.370;2023-07-20T01:39:45;44.77;;;7.70;;
3891;SDS011;1961;48.194;16.370;2023-07-20T01:42:11;45.43;;;6.87;;
3891;SDS011;1961;48.194;16.370;2023-07-20T01:44:38;44.00;;;7.37;;
3891;SDS011;1961;48.194;16.370;2023-07-20T01:47:04;43.80;;;7.10;;
3891;SDS011;1961;48.194;16.370;2023-07-20T01:49:30;44.77;;;7.70;;
3891;SDS011;1961;48.194;16.370;2023-07-20T01:51:56;43.40;;;7.33;;
3891;SDS011;1961;48.194;16.370;2023-07-20T01:54:23;45.43;;;8.13;;
3891;SDS011;1961;48.194;16.370;2023-07-20T01:56:49;45.80;;;7.33;;
3891;SDS011;1961;48.194;16.370;2023-07-20T01:59:15;43.73;;;7.83;;
3891;SDS011;1961;48.194;16.370;2023-07-20T02:01:41;45.47;;;7.60;;
3891;SDS011;1961;48.194;16.370;2023-07-20T02:04:08;43.80;;;6.90;;
3891;SDS011;1961;48.194;16.370;2023-07-20T02:06:34;45.60;;;7.50;;
3891;SDS011;1961;48.194;16.370;2023-07-20T02:09:00;47.60;;;7.23;;
3891;SDS011;1961;48.194;16.370;2023-07-20T02:11:26;45.40;;;7.90;;
3891;SDS011;1961;48.194;16.370;2023-07-20T02:13:52;45.27;;;7.20;;
3891;SDS011;1961;48.194;16.370;2023-07-20T02:16:18;44.37;;;8.23;;
3891;SDS011;1961;48.194;16.370;2023-07-20T02:18:45;44.73;;;8.47;;
3891;SDS011;1961;48.194;16.370;2023-07-20T02:21:11;44.40;;;7.67;;
3891;SDS011;1961;48.194;16.370;2023-07-20T02:23:37;45.47;;;7.90;;
3891;SDS011;1961;48.194;16.370;2023-07-20T02:26:03;45.43;;;8.07;;
3891;SDS011;1961;48.194;16.370;2023-07-20T02:28:29;45.40;;;7.53;;
3891;SDS011;1961;48.194;16.370;2023-07-20T02:30:55;43.87;;;7.40;;
3891;SDS011;1961;48.194;16.370;2023-07-20T02:33:22;44.10;;;7.20;;
3891;SDS011;1961;48.194;16.370;2023-07-20T02:35:48;45.30;;;8.03;;
3891;SDS011;1961;48.194;16.370;2023-07-20T02:38:14;44.57;;;7.80;;
3891;SDS011;1961;48.194;16.370;2023-07-20T02:40:40;45.70;;;8.37;;
3891;SDS011;1961;48.194;16.370;2023-07-20T02:43:07;44.00;;;7.40;;
3891;SDS011;1961;48.194;16.370;2023-07-20T02:45:40;45.67;;;8.20;;
3891;SDS011;1961;48.194;16.370;2023-07-20T02:48:08;46.70;;;7.70;;
3891;SDS011;1961;48.194;16.370;2023-07-20T02:50:34;44.70;;;7.53;;
3891;SDS011;1961;48.194;16.370;2023-07-20T02:53:00;46.27;;;7.67;;
3891;SDS011;1961;48.194;16.370;2023-07-20T02:55:26;47.73;;;7.40;;
3891;SDS011;1961;48.194;16.370;2023-07-20T02:57:53;44.83;;;7.50;;
3891;SDS011;1961;48.194;16.370;2023-07-20T03:00:19;44.13;;;7.87;;
3891;SDS011;1961;48.194;16.370;2023-07-20T03:02:48;43.67;;;7.53;;
3891;SDS011;1961;48.194;16.370;2023-07-20T03:05:21;45.50;;;7.70;;
3891;SDS011;1961;48.194;16.370;2023-07-20T03:07:50;46.20;;;7.73;;
3891;SDS011;1961;48.194;16.370;2023-07-20T03:10:16;46.93;;;7.40;;
3891;SDS011;1961;48.194;16.370;2023-07-20T03:12:42;43.63;;;7.07;;
3891;SDS011;1961;48.194;16.370;2023-07-20T03:15:09;44.90;;;7.33;;
3891;SDS011;1961;48.194;16.370;2023-07-20T03:17:35;44.37;;;6.70;;
3891;SDS011;1961;48.194;16.370;2023-07-20T03:20:01;43.90;;;7.57;;
3891;SDS011;1961;48.194;16.370;2023-07-20T03:22:28;45.27;;;8.07;;
3891;SDS011;1961;48.194;16.370;2023-07-20T03:24:54;44.50;;;7.67;;
3891;SDS011;1961;48.194;16.370;2023-07-20T03:27:21;44.23;;;6.70;;
3891;SDS011;1961;48.194;16.370;2023-07-20T03:29:47;44.60;;;6.97;;
3891;SDS011;1961;48.194;16.370;2023-07-20T03:32:13;43.53;;;7.13;;
3891;SDS011;1961;48.194;16.370;2023-07-20T03:34:40;44.40;;;6.80;;
3891;SDS011;1961;48.194;16.370;2023-07-20T03:37:06;44.17;;;6.60;;
3891;SDS011;1961;48.194;16.370;2023-07-20T03:39:32;43.50;;;6.73;;
3891;SDS011;1961;48.194;16.370;2023-07-20T03:41:58;43.97;;;7.33;;
3891;SDS011;1961;48.194;16.370;2023-07-20T03:44:24;44.53;;;8.00;;
3891;SDS011;1961;48.194;16.370;2023-07-20T03:46:50;46.23;;;7.13;;
3891;SDS011;1961;48.194;16.370;2023-07-20T03:49:17;44.57;;;6.60;;
3891;SDS011;1961;48.194;16.370;2023-07-20T03:51:43;43.07;;;6.80;;
3891;SDS011;1961;48.194;16.370;2023-07-20T03:54:09;46.20;;;7.60;;
3891;SDS011;1961;48.194;16.370;2023-07-20T03:56:35;46.43;;;6.90;;
3891;SDS011;1961;48.194;16.370;2023-07-20T03:59:01;44.47;;;7.20;;
3891;SDS011;1961;48.194;16.370;2023-07-20T04:01:28;43.40;;;7.07;;
3891;SDS011;1961;48.194;16.370;2023-07-20T04:03:54;44.10;;;6.97;;
3891;SDS011;1961;48.194;16.370;2023-07-20T04:06:20;44.63;;;7.30;;
3891;SDS011;1961;48.194;16.370;2023-07-20T04:08:47;43.47;;;6.63;;
3891;SDS011;1961;48.194;16.370;2023-07-20T04:11:13;43.47;;;6.87;;
3891;SDS011;1961;48.194;16.370;2023-07-20T04:13:40;44.83;;;7.73;;
3891;SDS011;1961;48.194;16.370;2023-07-20T04:16:07;44.70;;;7.50;;
3891;SDS011;1961;48.194;16.370;2023-07-20T04:18:33;45.67;;;6.60;;
3891;SDS011;1961;48.194;16.370;2023-07-20T04:20:59;44.60;;;7.13;;
3891;SDS011;1961;48.194;16.370;2023-07-20T04:23:25;43.17;;;6.97;;
3891;SDS011;1961;48.194;16.370;2023-07-20T04:25:51;45.47;;;7.57;;
3891;SDS011;1961;48.194;16.370;2023-07-20T04:28:18;45.83;;;7.53;;
3891;SDS011;1961;48.194;16.370;2023-07-20T04:30:45;44.97;;;7.23;;
3891;SDS011;1961;48.194;16.370;2023-07-20T04:33:11;45.77;;;7.40;;
3891;SDS011;1961;48.194;16.370;2023-07-20T04:35:53;45.27;;;8.20;;
3891;SDS011;1961;48.194;16.370;2023-07-20T04:38:19;44.70;;;7.33;;
3891;SDS011;1961;48.194;16.370;2023-07-20T04:40:49;44.50;;;7.90;;
3891;SDS011;1961;48.194;16.370;2023-07-20T04:43:16;47.33;;;7.23;;
3891;SDS011;1961;48.194;16.370;2023-07-20T04:45:43;43.63;;;6.93;;
3891;SDS011;1961;48.194;16.370;2023-07-20T04:48:10;43.63;;;6.90;;
3891;SDS011;1961;48.194;16.370;2023-07-20T04:50:37;47.40;;;7.77;;
3891;SDS011;1961;48.194;16.370;2023-07-20T04:53:03;45.83;;;7.83;;
3891;SDS011;1961;48.194;16.370;2023-07-20T04:55:30;44.47;;;8.20;;
3891;SDS011;1961;48.194;16.370;2023-07-20T04:57:57;46.73;;;9.00;;
3891;SDS011;1961;48.194;16.370;2023-07-20T05:00:23;44.80;;;7.90;;
3891;SDS011;1961;48.194;16.370;2023-07-20T05:02:51;45.80;;;9.07;;
3891;SDS011;1961;48.194;16.370;2023-07-20T05:05:17;44.60;;;7.60;;
3891;SDS011;1961;48.194;16.370;2023-07-20T05:07:43;48.33;;;7.80;;
3891;SDS011;1961;48.194;16.370;2023-07-20T05:10:10;43.20;;;7.03;;
3891;SDS011;1961;48.194;16.370;2023-07-20T05:12:37;46.43;;;8.00;;
3891;SDS011;1961;48.194;16.370;2023-07-20T05:15:03;43.60;;;7.07;;
3891;SDS011;1961;48.194;16.370;2023-07-20T05:17:30;45.43;;;8.50;;
3891;SDS011;1961;48.194;16.370;2023-07-20T05:19:56;44.87;;;8.40;;
3891;SDS011;1961;48.194;16.370;2023-07-20T05:22:22;46.70;;;7.67;;
3891;SDS011;1961;48.194;16.370;2023-07-20T05:24:50;46.47;;;7.70;;
3891;SDS011;1961;48.194;16.370;2023-07-20T05:27:16;46.63;;;8.00;;
3891;SDS011;1961;48.194;16.370;2023-07-20T05:29:45;44.10;;;7.50;;
3891;SDS011;1961;48.194;16.370;2023-07-20T05:32:14;46.13;;;7.43;;
3891;SDS011;1961;48.194;16.370;2023-07-20T05:34:40;45.67;;;7.40;;
3891;SDS011;1961;48.194;16.370;2023-07-20T05:37:07;47.77;;;7.50;;
3891;SDS011;1961;48.194;16.370;2023-07-20T05:39:33;47.37;;;7.63;;
3891;SDS011;1961;48.194;16.370;2023-07-20T05:41:59;44.37;;;7.20;;
3891;SDS011;1961;48.194;16.370;2023-07-20T05:44:25;45.73;;;7.90;;
3891;SDS011;1961;48.194;16.370;2023-07-20T05:46:51;45.33;;;7.30;;
3891;SDS011;1961;48.194;16.370;2023-07-20T05:49:18;47.23;;;8.93;;
3891;SDS011;1961;48.194;16.370;2023-07-20T05:51:44;44.97;;;8.33;;
3891;SDS011;1961;48.194;16.370;2023-07-20T05:54:12;45.47;;;7.30;;
3891;SDS011;1961;48.194;16.370;2023-07-20T05:56:38;44.83;;;7.20;;
3891;SDS011;1961;48.194;16.370;2023-07-20T05:59:04;46.33;;;7.77;;
3891;SDS011;1961;48.194;16.370;2023-07-20T06:01:30;43.90;;;7.43;;
3891;SDS011;1961;48.194;16.370;2023-07-20T06:03:56;43.87;;;7.23;;
3891;SDS011;1961;48.194;16.370;2023-07-20T06:06:22;47.90;;;9.27;;
3891;SDS011;1961;48.194;16.370;2023-07-20T06:08:49;47.50;;;7.93;;
3891;SDS011;1961;48.194;16.370;2023-07-20T06:11:15;44.40;;;7.67;;
3891;SDS011;1961;48.194;16.370;2023-07-20T06:13:41;51.00;;;7.97;;
3891;SDS011;1961;48.194;16.370;2023-07-20T06:16:08;45.80;;;7.07;;
3891;SDS011;1961;48.194;16.370;2023-07-20T06:18:35;46.10;;;7.80;;
3891;SDS011;1961;48.194;16.370;2023-07-20T06:21:01;44.40;;;7.60;;
3891;SDS011;1961;48.194;16.370;2023-07-20T06:23:27;46.00;;;7.50;;
3891;SDS011;1961;48.194;16.370;2023-07-20T06:25:53;44.27;;;7.40;;
3891;SDS011;1961;48.194;16.370;2023-07-20T06:28:19;45.63;;;7.37;;
3891;SDS011;1961;48.194;16.370;2023-07-20T06:30:46;46.63;;;7.10;;
3891;SDS011;1961;48.194;16.370;2023-07-20T06:33:12;45.10;;;7.97;;
3891;SDS011;1961;48.194;16.370;2023-07-20T06:35:41;46.33;;;7.47;;
3891;SDS011;1961;48.194;16.370;2023-07-20T06:38:08;45.10;;;7.50;;
3891;SDS011;1961;48.194;16.370;2023-07-20T06:40:34;45.77;;;7.20;;
3891;SDS011;1961;48.194;16.370;2023-07-20T06:43:00;43.53;;;6.60;;
3891;SDS011;1961;48.194;16.370;2023-07-20T06:45:26;45.57;;;7.30;;
3891;SDS011;1961;48.194;16.370;2023-07-20T06:47:52;45.57;;;8.20;;
3891;SDS011;1961;48.194;16.370;2023-07-20T06:50:19;44.77;;;7.50;;
3891;SDS011;1961;48.194;16.370;2023-07-20T06:52:45;46.17;;;7.57;;
3891;SDS011;1961;48.194;16.370;2023-07-20T06:55:13;45.90;;;7.20;;
3891;SDS011;1961;48.194;16.370;2023-07-20T06:57:39;43.90;;;7.07;;
3891;SDS011;1961;48.194;16.370;2023-07-20T07:00:06;44.70;;;6.80;;
3891;SDS011;1961;48.194;16.370;2023-07-20T07:02:32;45.63;;;9.60;;
3891;SDS011;1961;48.194;16.370;2023-07-20T07:04:59;44.30;;;7.40;;
3891;SDS011;1961;48.194;16.370;2023-07-20T07:07:26;43.90;;;7.23;;
3891;SDS011;1961;48.194;16.370;2023-07-20T07:09:52;43.80;;;7.37;;
3891;SDS011;1961;48.194;16.370;2023-07-20T07:12:19;44.30;;;7.20;;
3891;SDS011;1961;48.194;16.370;2023-07-20T07:14:45;46.63;;;7.30;;
3891;SDS011;1961;48.194;16.370;2023-07-20T07:17:11;44.03;;;6.90;;
3891;SDS011;1961;48.194;16.370;2023-07-20T07:19:37;46.70;;;7.47;;
3891;SDS011;1961;48.194;16.370;2023-07-20T07:22:04;44.90;;;6.90;;
3891;SDS011;1961;48.194;16.370;2023-07-20T07:24:30;45.80;;;7.33;;
3891;SDS011;1961;48.194;16.370;2023-07-20T07:26:59;45.50;;;8.00;;
3891;SDS011;1961;48.194;16.370;2023-07-20T07:29:26;45.30;;;8.23;;
3891;SDS011;1961;48.194;16.370;2023-07-20T07:31:52;46.50;;;7.83;;
3891;SDS011;1961;48.194;16.370;2023-07-20T07:34:18;44.07;;;6.90;;
3891;SDS011;1961;48.194;16.370;2023-07-20T07:36:44;43.83;;;7.43;;
3891;SDS011;1961;48.194;16.370;2023-07-20T07:39:12;44.60;;;8.13;;
3891;SDS011;1961;48.194;16.370;2023-07-20T07:41:38;44.30;;;7.53;;
3891;SDS011;1961;48.194;16.370;2023-07-20T07:44:05;51.33;;;8.50;;
3891;SDS011;1961;48.194;16.370;2023-07-20T07:46:31;43.90;;;7.30;;
3891;SDS011;1961;48.194;16.370;2023-07-20T07:48:57;46.37;;;8.03;;
3891;SDS011;1961;48.194;16.370;2023-07-20T07:51:24;45.07;;;7.33;;
3891;SDS011;1961;48.194;16.370;2023-07-20T07:53:52;44.47;;;7.73;;
3891;SDS011;1961;48.194;16.370;2023-07-20T07:56:18;44.87;;;7.30;;
3891;SDS011;1961;48.194;16.370;2023-07-20T07:58:48;43.17;;;7.40;;
3891;SDS011;1961;48.194;16.370;2023-07-20T08:01:17;44.70;;;7.40;;
3891;SDS011;1961;48.194;16.370;2023-07-20T08:03:44;45.30;;;7.70;;
3891;SDS011;1961;48.194;16.370;2023-07-20T08:06:12;43.80;;;7.23;;
3891;SDS011;1961;48.194;16.370;2023-07-20T08:08:38;54.13;;;8.27;;
3891;SDS011;1961;48.194;16.370;2023-07-20T08:11:05;43.70;;;7.30;;
3891;SDS011;1961;48.194;16.370;2023-07-20T08:13:31;44.77;;;8.33;;
3891;SDS011;1961;48.194;16.370;2023-07-20T08:15:57;59.17;;;8.80;;
3891;SDS011;1961;48.194;16.370;2023-07-20T08:18:24;45.47;;;8.53;;
3891;SDS011;1961;48.194;16.370;2023-07-20T08:20:50;45.30;;;8.60;;
3891;SDS011;1961;48.194;16.370;2023-07-20T08:23:16;46.43;;;7.77;;
3891;SDS011;1961;48.194;16.370;2023-07-20T08:25:42;42.87;;;6.83;;
3891;SDS011;1961;48.194;16.370;2023-07-20T08:28:13;43.33;;;6.90;;
3891;SDS011;1961;48.194;16.370;2023-07-20T08:30:43;44.70;;;7.63;;
3891;SDS011;1961;48.194;16.370;2023-07-20T08:33:13;44.23;;;7.30;;
3891;SDS011;1961;48.194;16.370;2023-07-20T08:35:39;44.80;;;7.63;;
3891;SDS011;1961;48.194;16.370;2023-07-20T08:38:06;43.40;;;7.10;;
3891;SDS011;1961;48.194;16.370;2023-07-20T08:40:39;44.30;;;7.30;;
3891;SDS011;1961;48.194;16.370;2023-07-20T08:43:05;46.20;;;7.63;;
3891;SDS011;1961;48.194;16.370;2023-07-20T08:45:32;48.43;;;7.37;;
3891;SDS011;1961;48.194;16.370;2023-07-20T08:47:59;43.30;;;7.40;;
3891;SDS011;1961;48.194;16.370;2023-07-20T08:50:28;45.10;;;7.53;;
3891;SDS011;1961;48.194;16.370;2023-07-20T08:52:56;43.87;;;7.13;;
3891;SDS011;1961;48.194;16.370;2023-07-20T08:55:23;44.57;;;7.40;;
3891;SDS011;1961;48.194;16.370;2023-07-20T08:57:50;44.47;;;7.50;;
3891;SDS011;1961;48.194;16.370;2023-07-20T09:00:19;43.07;;;7.20;;
3891;SDS011;1961;48.194;16.370;2023-07-20T09:02:46;47.03;;;7.73;;
3891;SDS011;1961;48.194;16.370;2023-07-20T09:05:14;43.80;;;7.33;;
3891;SDS011;1961;48.194;16.370;2023-07-20T09:07:40;45.13;;;7.97;;
3891;SDS011;1961;48.194;16.370;2023-07-20T09:10:06;44.00;;;7.83;;
3891;SDS011;1961;48.194;16.370;2023-07-20T09:12:40;43.80;;;7.70;;
3891;SDS011;1961;48.194;16.370;2023-07-20T09:15:07;43.60;;;7.07;;
3891;SDS011;1961;48.194;16.370;2023-07-20T09:17:33;43.10;;;6.90;;
3891;SDS011;1961;48.194;16.370;2023-07-20T09:20:03;43.73;;;7.20;;
3891;SDS011;1961;48.194;16.370;2023-07-20T09:22:36;44.97;;;7.47;;
3891;SDS011;1961;48.194;16.370;2023-07-20T09:25:16;45.83;;;7.13;;
3891;SDS011;1961;48.194;16.370;2023-07-20T09:27:45;43.77;;;7.40;;
3891;SDS011;1961;48.194;16.370;2023-07-20T09:30:13;51.97;;;9.33;;
3891;SDS011;1961;48.194;16.370;2023-07-20T09:32:40;47.43;;;7.10;;
3891;SDS011;1961;48.194;16.370;2023-07-20T09:37:41;46.30;;;6.97;;
3891;SDS011;1961;48.194;16.370;2023-07-20T09:40:14;43.77;;;7.40;;
3891;SDS011;1961;48.194;16.370;2023-07-20T09:42:40;43.43;;;7.00;;
3891;SDS011;1961;48.194;16.370;2023-07-20T09:45:08;44.63;;;6.97;;
3891;SDS011;1961;48.194;16.370;2023-07-20T09:47:38;45.30;;;7.30;;
3891;SDS011;1961;48.194;16.370;2023-07-20T09:50:05;44.77;;;7.07;;
3891;SDS011;1961;48.194;16.370;2023-07-20T09:52:39;46.13;;;7.60;;
3891;SDS011;1961;48.194;16.370;2023-07-20T09:55:06;45.00;;;7.30;;
3891;SDS011;1961;48.194;16.370;2023-07-20T09:57:33;44.90;;;6.60;;
3891;SDS011;1961;48.194;16.370;2023-07-20T10:00:00;43.17;;;6.93;;
3891;SDS011;1961;48.194;16.370;2023-07-20T10:02:28;43.73;;;6.50;;
3891;SDS011;1961;48.194;16.370;2023-07-20T10:04:56;45.57;;;7.20;;
3891;SDS011;1961;48.194;16.370;2023-07-20T10:07:25;47.33;;;7.30;;
3891;SDS011;1961;48.194;16.370;2023-07-20T10:09:53;42.70;;;6.93;;
3891;SDS011;1961;48.194;16.370;2023-07-20T10:12:21;43.80;;;6.90;;
3891;SDS011;1961;48.194;16.370;2023-07-20T10:15:32;43.10;;;6.87;;
3891;SDS011;1961;48.194;16.370;2023-07-20T10:17:39;44.10;;;7.17;;
3891;SDS011;1961;48.194;16.370;2023-07-20T10:20:07;43.13;;;6.17;;
3891;SDS011;1961;48.194;16.370;2023-07-20T10:22:35;46.37;;;6.90;;
3891;SDS011;1961;48.194;16.370;2023-07-20T10:25:02;45.47;;;7.37;;
3891;SDS011;1961;48.194;16.370;2023-07-20T10:27:30;45.00;;;6.77;;
3891;SDS011;1961;48.194;16.370;2023-07-20T10:29:56;42.70;;;6.53;;
3891;SDS011;1961;48.194;16.370;2023-07-20T10:32:24;43.70;;;6.47;;
3891;SDS011;1961;48.194;16.370;2023-07-20T10:34:51;43.20;;;6.40;;
3891;SDS011;1961;48.194;16.370;2023-07-20T10:37:45;43.50;;;5.63;;
3891;SDS011;1961;48.194;16.370;2023-07-20T10:42:49;44.17;;;6.43;;
3891;SDS011;1961;48.194;16.370;2023-07-20T10:45:16;49.43;;;6.50;;
3891;SDS011;1961;48.194;16.370;2023-07-20T10:47:46;44.97;;;6.63;;
3891;SDS011;1961;48.194;16.370;2023-07-20T10:50:12;42.97;;;6.03;;
3891;SDS011;1961;48.194;16.370;2023-07-20T10:52:41;44.40;;;6.80;;
3891;SDS011;1961;48.194;16.370;2023-07-20T10:55:11;43.50;;;6.50;;
3891;SDS011;1961;48.194;16.370;2023-07-20T10:57:40;43.07;;;5.77;;
3891;SDS011;1961;48.194;16.370;2023-07-20T11:00:07;41.17;;;5.50;;
3891;SDS011;1961;48.194;16.370;2023-07-20T11:02:48;42.90;;;5.90;;
3891;SDS011;1961;48.194;16.370;2023-07-20T11:05:34;48.53;;;6.00;;
3891;SDS011;1961;48.194;16.370;2023-07-20T11:08:04;47.10;;;6.40;;
3891;SDS011;1961;48.194;16.370;2023-07-20T11:10:30;43.67;;;6.33;;
3891;SDS011;1961;48.194;16.370;2023-07-20T11:15:45;42.83;;;6.00;;
3891;SDS011;1961;48.194;16.370;2023-07-20T11:18:12;44.90;;;5.87;;
3891;SDS011;1961;48.194;16.370;2023-07-20T11:20:39;44.20;;;6.03;;
3891;SDS011;1961;48.194;16.370;2023-07-20T11:23:05;42.80;;;6.87;;
3891;SDS011;1961;48.194;16.370;2023-07-20T11:25:40;43.67;;;5.87;;
3891;SDS011;1961;48.194;16.370;2023-07-20T11:28:07;42.07;;;5.43;;
3891;SDS011;1961;48.194;16.370;2023-07-20T11:30:36;44.17;;;5.57;;
3891;SDS011;1961;48.194;16.370;2023-07-20T11:33:03;42.67;;;5.43;;
3891;SDS011;1961;48.194;16.370;2023-07-20T11:35:30;44.00;;;6.10;;
3891;SDS011;1961;48.194;16.370;2023-07-20T11:37:56;44.97;;;6.23;;
3891;SDS011;1961;48.194;16.370;2023-07-20T11:40:22;43.57;;;6.23;;
3891;SDS011;1961;48.194;16.370;2023-07-20T11:42:49;42.40;;;5.63;;
3891;SDS011;1961;48.194;16.370;2023-07-20T11:45:17;42.97;;;5.27;;
3891;SDS011;1961;48.194;16.370;2023-07-20T11:47:43;45.37;;;5.60;;
3891;SDS011;1961;48.194;16.370;2023-07-20T11:50:10;43.70;;;6.00;;
3891;SDS011;1961;48.194;16.370;2023-07-20T11:52:39;43.97;;;5.47;;
3891;SDS011;1961;48.194;16.370;2023-07-20T11:55:06;42.70;;;5.57;;
3891;SDS011;1961;48.194;16.370;2023-07-20T11:57:33;41.83;;;5.30;;
3891;SDS011;1961;48.194;16.370;2023-07-20T12:00:02;42.27;;;5.80;;
3891;SDS011;1961;48.194;16.370;2023-07-20T12:02:34;43.90;;;5.63;;
3891;SDS011;1961;48.194;16.370;2023-07-20T12:05:01;42.73;;;5.50;;
3891;SDS011;1961;48.194;16.370;2023-07-20T12:07:29;46.40;;;5.83;;
3891;SDS011;1961;48.194;16.370;2023-07-20T12:12:31;43.73;;;5.83;;
3891;SDS011;1961;48.194;16.370;2023-07-20T12:17:43;43.37;;;5.80;;
3891;SDS011;1961;48.194;16.370;2023-07-20T12:20:10;41.70;;;5.63;;
3891;SDS011;1961;48.194;16.370;2023-07-20T12:22:43;42.87;;;5.30;;
3891;SDS011;1961;48.194;16.370;2023-07-20T12:25:09;40.90;;;5.00;;
3891;SDS011;1961;48.194;16.370;2023-07-20T12:27:36;42.50;;;5.23;;
3891;SDS011;1961;48.194;16.370;2023-07-20T12:30:07;44.70;;;5.63;;
3891;SDS011;1961;48.194;16.370;2023-07-20T12:32:34;43.13;;;5.43;;
3891;SDS011;1961;48.194;16.370;2023-07-20T12:35:00;48.50;;;5.13;;
3891;SDS011;1961;48.194;16.370;2023-07-20T12:37:26;44.23;;;5.07;;
3891;SDS011;1961;48.194;16.370;2023-07-20T12:39:53;45.17;;;5.33;;
3891;SDS011;1961;48.194;16.370;2023-07-20T12:42:19;41.20;;;4.90;;
3891;SDS011;1961;48.194;16.370;2023-07-20T12:44:45;43.90;;;4.90;;
3891;SDS011;1961;48.194;16.370;2023-07-20T12:47:12;43.00;;;5.03;;
3891;SDS011;1961;48.194;16.370;2023-07-20T12:49:38;42.07;;;4.90;;
3891;SDS011;1961;48.194;16.370;2023-07-20T12:52:04;42.27;;;5.07;;
3891;SDS011;1961;48.194;16.370;2023-07-20T12:54:31;42.03;;;5.33;;
3891;SDS011;1961;48.194;16.370;2023-07-20T12:56:58;42.07;;;4.77;;
3891;SDS011;1961;48.194;16.370;2023-07-20T12:59:24;42.50;;;5.10;;
3891;SDS011;1961;48.194;16.370;2023-07-20T13:01:50;45.77;;;4.97;;
3891;SDS011;1961;48.194;16.370;2023-07-20T13:04:16;49.53;;;5.87;;
3891;SDS011;1961;48.194;16.370;2023-07-20T13:06:42;44.27;;;6.60;;
3891;SDS011;1961;48.194;16.370;2023-07-20T13:09:09;43.27;;;5.67;;
3891;SDS011;1961;48.194;16.370;2023-07-20T13:11:35;42.60;;;4.93;;
3891;SDS011;1961;48.194;16.370;2023-07-20T13:14:01;41.30;;;4.73;;
3891;SDS011;1961;48.194;16.370;2023-07-20T13:16:27;49.23;;;7.27;;
3891;SDS011;1961;48.194;16.370;2023-07-20T13:18:53;41.80;;;5.50;;
3891;SDS011;1961;48.194;16.370;2023-07-20T13:21:20;42.10;;;5.03;;
3891;SDS011;1961;48.194;16.370;2023-07-20T13:23:48;43.20;;;5.87;;
3891;SDS011;1961;48.194;16.370;2023-07-20T13:26:15;44.73;;;6.10;;
3891;SDS011;1961;48.194;16.370;2023-07-20T13:28:42;41.50;;;5.00;;
3891;SDS011;1961;48.194;16.370;2023-07-20T13:31:08;43.97;;;5.17;;
3891;SDS011;1961;48.194;16.370;2023-07-20T13:33:36;41.73;;;5.10;;
3891;SDS011;1961;48.194;16.370;2023-07-20T13:36:02;45.83;;;6.13;;
3891;SDS011;1961;48.194;16.370;2023-07-20T13:38:31;41.80;;;5.50;;
3891;SDS011;1961;48.194;16.370;2023-07-20T13:40:57;42.00;;;4.90;;
3891;SDS011;1961;48.194;16.370;2023-07-20T13:43:23;41.20;;;4.80;;
3891;SDS011;1961;48.194;16.370;2023-07-20T13:45:50;43.70;;;5.27;;
3891;SDS011;1961;48.194;16.370;2023-07-20T13:48:16;44.93;;;5.13;;
3891;SDS011;1961;48.194;16.370;2023-07-20T13:50:44;43.30;;;5.00;;
3891;SDS011;1961;48.194;16.370;2023-07-20T13:53:11;41.27;;;5.30;;
3891;SDS011;1961;48.194;16.370;2023-07-20T13:55:38;41.97;;;5.30;;
3891;SDS011;1961;48.194;16.370;2023-07-20T13:58:04;41.80;;;5.10;;
3891;SDS011;1961;48.194;16.370;2023-07-20T14:00:31;41.80;;;5.80;;
3891;SDS011;1961;48.194;16.370;2023-07-20T14:02:58;41.87;;;5.40;;
3891;SDS011;1961;48.194;16.370;2023-07-20T14:05:25;42.57;;;5.70;;
3891;SDS011;1961;48.194;16.370;2023-07-20T14:07:51;42.33;;;5.50;;
3891;SDS011;1961;48.194;16.370;2023-07-20T14:10:18;44.17;;;5.80;;
3891;SDS011;1961;48.194;16.370;2023-07-20T14:12:44;42.37;;;5.10;;
3891;SDS011;1961;48.194;16.370;2023-07-20T14:15:10;44.50;;;5.70;;
3891;SDS011;1961;48.194;16.370;2023-07-20T14:17:36;46.50;;;7.10;;
3891;SDS011;1961;48.194;16.370;2023-07-20T14:20:03;42.83;;;5.90;;
3891;SDS011;1961;48.194;16.370;2023-07-20T14:22:33;43.53;;;6.00;;
3891;SDS011;1961;48.194;16.370;2023-07-20T14:24:59;44.37;;;5.70;;
3891;SDS011;1961;48.194;16.370;2023-07-20T14:27:26;41.50;;;5.50;;
3891;SDS011;1961;48.194;16.370;2023-07-20T14:29:52;43.33;;;5.67;;
3891;SDS011;1961;48.194;16.370;2023-07-20T14:32:18;42.30;;;5.97;;
3891;SDS011;1961;48.194;16.370;2023-07-20T14:34:44;42.37;;;5.90;;
3891;SDS011;1961;48.194;16.370;2023-07-20T14:37:10;41.17;;;5.57;;
3891;SDS011;1961;48.194;16.370;2023-07-20T14:39:38;41.50;;;5.60;;
3891;SDS011;1961;48.194;16.370;2023-07-20T14:42:04;44.00;;;5.87;;
3891;SDS011;1961;48.194;16.370;2023-07-20T14:44:32;42.17;;;5.67;;
3891;SDS011;1961;48.194;16.370;2023-07-20T14:46:59;42.00;;;5.70;;
3891;SDS011;1961;48.194;16.370;2023-07-20T14:49:26;42.87;;;5.83;;
3891;SDS011;1961;48.194;16.370;2023-07-20T14:51:52;46.20;;;6.30;;
3891;SDS011;1961;48.194;16.370;2023-07-20T14:54:18;43.20;;;6.27;;
3891;SDS011;1961;48.194;16.370;2023-07-20T14:56:50;43.57;;;5.77;;
3891;SDS011;1961;48.194;16.370;2023-07-20T14:59:18;45.63;;;5.50;;
3891;SDS011;1961;48.194;16.370;2023-07-20T15:01:44;41.27;;;5.23;;
3891;SDS011;1961;48.194;16.370;2023-07-20T15:04:14;40.97;;;5.40;;
3891;SDS011;1961;48.194;16.370;2023-07-20T15:06:41;42.43;;;6.17;;
3891;SDS011;1961;48.194;16.370;2023-07-20T15:09:07;43.47;;;5.50;;